createdAt,value
2022-09-21T00:12:45.047Z,31.902
2022-09-21T00:27:47.318Z,32.66
2022-09-21T00:42:49.561Z,33.512
2022-09-21T00:57:51.822Z,33.6
2022-09-21T01:12:54.467Z,34.574
2022-09-21T01:27:56.701Z,37.409
2022-09-21T01:42:58.953Z,39.482
2022-09-21T01:58:01.154Z,39.976
2022-09-21T02:13:03.356Z,42.25
2022-09-21T02:28:05.594Z,43.377
2022-09-21T02:43:07.854Z,43.348
2022-09-21T02:58:10.239Z,45.439
2022-09-21T03:13:12.776Z,46.855
2022-09-21T03:28:15.039Z,48.378
2022-09-21T03:43:17.423Z,49.548
2022-09-21T03:58:19.611Z,48.845
2022-09-21T04:13:21.834Z,49.152
2022-09-21T04:28:24.250Z,52.19
2022-09-21T04:43:26.542Z,53.128
2022-09-21T04:58:28.775Z,52.353
2022-09-21T05:13:30.967Z,52.07
2022-09-21T05:28:36.597Z,54.126
2022-09-21T05:43:42.378Z,54.14
2022-09-21T05:58:44.853Z,56.059
2022-09-21T06:13:47.307Z,54.802
2022-09-21T06:28:49.932Z,55.542
2022-09-21T06:43:52.225Z,54.774
2022-09-21T06:58:54.504Z,54.85
2022-09-21T07:13:56.891Z,54.784
2022-09-21T07:28:59.091Z,55.37
2022-09-21T07:44:01.432Z,55.843
2022-09-21T07:59:03.786Z,58.403
2022-09-21T08:14:06.388Z,57.945
2022-09-21T08:29:08.687Z,61.685
2022-09-21T08:44:10.918Z,57.777
2022-09-21T08:59:13.202Z,60.956
2022-09-21T09:14:15.428Z,58.326
2022-09-21T09:29:17.675Z,58.79
2022-09-21T09:44:19.975Z,60.989
2022-09-21T09:59:22.353Z,62.089
2022-09-21T10:14:24.538Z,59.898
2022-09-21T10:29:26.763Z,59.879
2022-09-21T10:44:29.015Z,59.243
2022-09-21T10:59:31.163Z,62.963
2022-09-21T11:14:33.518Z,63.281
2022-09-21T11:29:35.866Z,66.822
2022-09-21T11:44:38.025Z,66.754
2022-09-21T11:59:40.295Z,65.667
2022-09-21T12:14:42.710Z,60.624
2022-09-21T12:29:44.911Z,64.689
2022-09-21T12:44:47.126Z,62.666
2022-09-21T12:59:49.530Z,61.43
2022-09-21T13:14:51.731Z,65.396
2022-09-21T13:29:53.941Z,63.822
2022-09-21T13:44:56.284Z,66.548
2022-09-21T13:59:58.512Z,62.047
2022-09-21T14:15:00.715Z,65.743
2022-09-21T14:30:06.456Z,63.14
2022-09-21T14:45:09.556Z,44.606
2022-09-21T15:00:11.896Z,55.114
2022-09-21T15:15:14.162Z,57.245
2022-09-21T15:30:16.545Z,58.139
2022-09-21T15:45:18.900Z,48.929
2022-09-21T16:00:21.158Z,53.818
2022-09-21T16:15:23.345Z,53.608
2022-09-21T16:30:25.629Z,48.025
2022-09-21T16:45:27.923Z,47.108
2022-09-21T17:00:30.250Z,45.929
2022-09-21T17:15:32.690Z,45.701
2022-09-21T17:30:34.810Z,38.379
2022-09-21T17:45:37.037Z,33.586
2022-09-21T18:00:39.252Z,35.653
2022-09-21T18:15:41.556Z,40.765
2022-09-21T18:30:43.840Z,40.252
2022-09-21T18:45:46.020Z,40.549
2022-09-21T19:00:48.281Z,39.534
2022-09-21T19:16:00.215Z,38.694
2022-09-21T19:31:03.582Z,37.25
2022-09-21T19:46:05.915Z,35.219
2022-09-21T20:01:08.324Z,34.206
2022-09-21T20:16:13.034Z,34.19
2022-09-21T20:31:18.226Z,33.496
2022-09-21T20:46:20.578Z,31.366
2022-09-21T21:01:22.928Z,32.674
2022-09-21T21:16:25.302Z,31.727
2022-09-21T21:31:27.614Z,32.372
2022-09-21T21:46:30.009Z,31.313
2022-09-21T22:01:32.342Z,31.601
2022-09-21T22:16:34.750Z,30.591
2022-09-21T22:31:37.134Z,30.748
2022-09-21T22:46:39.492Z,31.629
2022-09-21T23:16:42.905Z,30.729
2022-09-21T23:31:46.127Z,31.473
2022-09-21T23:46:48.834Z,30.812
